createdAt,value
2023-02-09T00:00:11.045Z,-7.97
2023-02-09T00:01:10.415Z,-7.76
2023-02-09T00:02:07.534Z,-7.75
2023-02-09T00:03:04.195Z,-8.20
2023-02-09T00:04:02.622Z,-8.01
2023-02-09T00:04:59.739Z,-8.04
2023-02-09T00:05:58.532Z,-7.89
2023-02-09T00:06:55.180Z,-7.90
2023-02-09T00:07:51.832Z,-7.77
2023-02-09T00:08:48.664Z,-7.84
2023-02-09T00:09:45.453Z,-7.84
2023-02-09T00:10:42.055Z,-8.32
2023-02-09T00:11:57.144Z,-8.06
2023-02-09T00:13:12.592Z,-7.90
2023-02-09T00:14:10.842Z,-7.99
2023-02-09T00:15:08.490Z,-7.90
2023-02-09T00:16:05.695Z,-7.80
2023-02-09T00:17:03.717Z,-7.72
2023-02-09T00:18:00.303Z,-7.84
2023-02-09T00:18:57.391Z,-8.10
2023-02-09T00:19:55.171Z,-8.29
2023-02-09T00:21:03.679Z,-7.83
2023-02-09T00:22:00.732Z,-7.94
2023-02-09T00:22:57.327Z,-8.24
2023-02-09T00:23:53.942Z,-7.73
2023-02-09T00:24:50.531Z,-7.63
2023-02-09T00:25:47.162Z,-7.65
2023-02-09T00:26:44.378Z,-7.80
2023-02-09T00:27:40.982Z,-7.98
2023-02-09T00:28:38.046Z,-7.91
2023-02-09T00:29:34.885Z,-7.98
2023-02-09T00:30:31.485Z,-7.96
2023-02-09T00:31:28.302Z,-7.83
2023-02-09T00:32:25.049Z,-8.08
2023-02-09T00:33:21.981Z,-8.28
2023-02-09T00:34:19.144Z,-8.19
2023-02-09T00:35:15.802Z,-7.70
2023-02-09T00:36:13.919Z,-7.84
2023-02-09T00:37:10.586Z,-7.78
2023-02-09T00:38:07.581Z,-8.42
2023-02-09T00:39:04.457Z,-8.40
2023-02-09T00:40:01.017Z,-8.20
2023-02-09T00:40:57.631Z,-8.25
2023-02-09T00:42:06.394Z,-7.99
2023-02-09T00:43:03.426Z,-7.86
2023-02-09T00:44:00.151Z,-8.08
2023-02-09T00:44:56.758Z,-8.16
2023-02-09T00:45:53.367Z,-7.84
2023-02-09T00:46:52.211Z,-7.97
2023-02-09T00:47:48.822Z,-7.90
2023-02-09T00:48:45.429Z,-8.00
2023-02-09T00:49:42.057Z,-8.05
2023-02-09T00:50:38.643Z,-8.20
2023-02-09T00:51:35.608Z,-7.96
2023-02-09T00:52:33.357Z,-7.87
2023-02-09T00:53:29.902Z,-8.06
2023-02-09T00:54:26.906Z,-8.31
2023-02-09T00:55:23.571Z,-8.00
2023-02-09T00:56:20.245Z,-7.99
2023-02-09T00:57:16.820Z,-7.89
2023-02-09T00:58:13.618Z,-8.04
2023-02-09T00:59:11.165Z,-8.33
2023-02-09T01:00:08.613Z,-7.92
2023-02-09T01:01:05.396Z,-8.15
2023-02-09T01:02:02.852Z,-7.90
2023-02-09T01:02:59.696Z,-7.97
2023-02-09T01:03:56.939Z,-8.28
2023-02-09T01:04:53.579Z,-7.92
2023-02-09T01:05:50.235Z,-7.85
2023-02-09T01:06:46.793Z,-7.74
2023-02-09T01:07:43.446Z,-7.99
2023-02-09T01:08:40.075Z,-8.09
2023-02-09T01:09:36.739Z,-8.65
2023-02-09T01:10:33.974Z,-8.02
2023-02-09T01:11:30.637Z,-8.10
2023-02-09T01:12:27.226Z,-8.16
2023-02-09T01:13:23.901Z,-7.89
2023-02-09T01:14:20.483Z,-7.82
2023-02-09T01:15:17.135Z,-8.11
2023-02-09T01:16:16.517Z,-8.01
2023-02-09T01:17:14.217Z,-7.97
2023-02-09T01:18:10.814Z,-8.37
2023-02-09T01:19:07.362Z,-8.02
2023-02-09T01:20:06.259Z,-7.90
2023-02-09T01:21:03.319Z,-7.83
2023-02-09T01:22:00.132Z,-7.81
2023-02-09T01:22:56.829Z,-7.95
2023-02-09T01:23:53.492Z,-7.99
2023-02-09T01:24:50.102Z,-8.13
2023-02-09T01:25:46.707Z,-8.28
2023-02-09T01:26:43.412Z,-8.25
2023-02-09T01:27:40.524Z,-8.10
2023-02-09T01:28:37.895Z,-7.92
2023-02-09T01:29:34.472Z,-8.13
2023-02-09T01:30:31.105Z,-8.19
2023-02-09T01:31:30.567Z,-8.22
2023-02-09T01:32:27.498Z,-8.26
2023-02-09T01:33:24.156Z,-8.36
2023-02-09T01:34:20.731Z,-8.31
2023-02-09T01:35:17.652Z,-8.68
2023-02-09T01:36:14.464Z,-8.58
2023-02-09T01:37:11.070Z,-8.34
2023-02-09T01:38:07.631Z,-8.50
2023-02-09T01:39:04.915Z,-8.40
2023-02-09T01:40:03.598Z,-8.64
2023-02-09T01:41:00.173Z,-8.24
2023-02-09T01:41:56.784Z,-8.34
2023-02-09T01:42:53.376Z,-8.34
2023-02-09T01:44:06.358Z,-8.66
2023-02-09T01:45:08.210Z,-8.54
2023-02-09T01:46:05.003Z,-8.42
2023-02-09T01:47:01.587Z,-8.31
2023-02-09T01:48:01.505Z,-8.51
2023-02-09T01:49:09.623Z,-8.60
2023-02-09T01:50:06.735Z,-8.49
2023-02-09T01:51:04.035Z,-8.63
2023-02-09T01:52:10.199Z,-8.56
2023-02-09T01:53:07.549Z,-8.46
2023-02-09T01:54:13.340Z,-8.65
2023-02-09T01:55:14.236Z,-8.59
2023-02-09T01:56:21.316Z,-8.57
2023-02-09T01:57:27.797Z,-8.55
2023-02-09T01:58:26.830Z,-8.54
2023-02-09T01:59:24.411Z,-8.51
2023-02-09T02:00:22.396Z,-8.50
2023-02-09T02:01:19.150Z,-8.50
2023-02-09T02:02:16.059Z,-8.64
2023-02-09T02:03:17.482Z,-8.51
2023-02-09T02:04:14.361Z,-8.57
2023-02-09T02:05:11.361Z,-8.50
2023-02-09T02:06:14.081Z,-8.33
2023-02-09T02:07:17.883Z,-8.60
2023-02-09T02:08:20.288Z,-8.49
2023-02-09T02:09:17.783Z,-8.46
2023-02-09T02:10:14.570Z,-8.49
2023-02-09T02:11:11.328Z,-8.69
2023-02-09T02:12:07.970Z,-8.41
2023-02-09T02:13:04.672Z,-8.33
2023-02-09T02:14:01.422Z,-8.65
2023-02-09T02:14:58.275Z,-8.37
2023-02-09T02:16:02.014Z,-8.42
2023-02-09T02:17:33.354Z,-8.40
2023-02-09T02:18:55.301Z,-8.36
2023-02-09T02:20:15.970Z,-8.38
2023-02-09T02:21:18.135Z,-8.25
2023-02-09T02:22:52.342Z,-8.33
2023-02-09T02:23:59.601Z,-8.47
2023-02-09T02:25:17.041Z,-8.30
2023-02-09T02:26:22.443Z,-8.35
2023-02-09T02:27:40.746Z,-8.23
2023-02-09T02:29:03.687Z,-8.24
2023-02-09T02:30:06.373Z,-8.26
2023-02-09T02:31:14.923Z,-8.07
2023-02-09T02:32:29.779Z,-8.24
2023-02-09T02:33:51.208Z,-8.14
2023-02-09T02:35:04.995Z,-8.51
2023-02-09T02:36:28.448Z,-8.31
2023-02-09T02:37:37.910Z,-8.13
2023-02-09T02:38:53.767Z,-8.05
2023-02-09T02:39:55.855Z,-8.18
2023-02-09T02:40:52.592Z,-8.25
2023-02-09T02:42:13.707Z,-8.09
2023-02-09T02:43:59.776Z,-8.07
2023-02-09T02:45:15.196Z,-8.05
2023-02-09T02:46:35.879Z,-8.10
2023-02-09T02:47:36.847Z,-8.16
2023-02-09T02:48:47.225Z,-8.05
2023-02-09T02:49:55.784Z,-8.31
2023-02-09T02:50:55.442Z,-8.01
2023-02-09T02:51:56.752Z,-7.97
2023-02-09T02:52:56.623Z,-7.97
2023-02-09T02:53:57.072Z,-8.22
2023-02-09T02:55:05.144Z,-7.87
2023-02-09T02:56:08.107Z,-8.01
2023-02-09T02:57:11.416Z,-8.02
2023-02-09T02:58:11.385Z,-7.96
2023-02-09T02:59:14.241Z,-7.98
2023-02-09T03:00:15.022Z,-8.22
2023-02-09T03:01:17.431Z,-7.86
2023-02-09T03:02:17.522Z,-7.83
2023-02-09T03:03:19.755Z,-8.15
2023-02-09T03:04:18.206Z,-7.95
2023-02-09T03:05:17.943Z,-8.16
2023-02-09T03:06:15.946Z,-8.10
2023-02-09T03:07:12.725Z,-8.06
2023-02-09T03:08:09.393Z,-8.24
2023-02-09T03:09:06.180Z,-8.01
2023-02-09T03:10:22.875Z,-8.05
2023-02-09T03:11:21.439Z,-7.96
2023-02-09T03:12:39.875Z,-7.83
2023-02-09T03:13:45.553Z,-7.95
2023-02-09T03:15:08.132Z,-8.08
2023-02-09T03:16:23.450Z,-7.97
2023-02-09T03:17:34.789Z,-8.07
2023-02-09T03:18:43.701Z,-8.09
2023-02-09T03:19:51.313Z,-8.11
2023-02-09T03:21:04.731Z,-8.02
2023-02-09T03:22:08.031Z,-8.13
2023-02-09T03:23:10.540Z,-8.27
2023-02-09T03:24:37.732Z,-8.43
2023-02-09T03:25:45.202Z,-8.11
2023-02-09T03:26:49.697Z,-8.19
2023-02-09T03:27:59.458Z,-8.21
2023-02-09T03:28:57.939Z,-8.12
2023-02-09T03:29:59.178Z,-8.05
2023-02-09T03:30:57.691Z,-8.22
2023-02-09T03:31:55.155Z,-8.22
2023-02-09T03:32:56.372Z,-8.52
2023-02-09T03:33:53.068Z,-8.20
2023-02-09T03:34:50.210Z,-8.40
2023-02-09T03:35:50.348Z,-8.13
2023-02-09T03:36:52.691Z,-8.21
2023-02-09T03:37:49.210Z,-8.30
2023-02-09T03:38:45.852Z,-8.32
2023-02-09T03:39:42.487Z,-8.19
2023-02-09T03:40:39.105Z,-8.17
2023-02-09T03:41:35.700Z,-8.14
2023-02-09T03:42:32.282Z,-8.17
2023-02-09T03:43:47.441Z,-8.20
2023-02-09T03:44:43.978Z,-8.40
2023-02-09T03:45:40.717Z,-8.34
2023-02-09T03:46:37.360Z,-8.14
2023-02-09T03:47:34.610Z,-8.27
2023-02-09T03:48:31.177Z,-8.16
2023-02-09T03:49:33.643Z,-8.17
2023-02-09T03:50:30.269Z,-8.10
2023-02-09T03:51:26.899Z,-8.11
2023-02-09T03:52:23.518Z,-8.23
2023-02-09T03:53:20.134Z,-8.25
2023-02-09T03:54:16.848Z,-8.21
2023-02-09T03:55:13.482Z,-8.79
2023-02-09T03:56:10.085Z,-8.18
2023-02-09T03:57:07.754Z,-8.19
2023-02-09T03:58:04.472Z,-8.22
2023-02-09T03:59:01.180Z,-8.34
2023-02-09T03:59:57.842Z,-8.22
2023-02-09T04:00:54.554Z,-8.28
2023-02-09T04:01:52.581Z,-8.30
2023-02-09T04:02:49.173Z,-8.34
2023-02-09T04:03:45.820Z,-8.49
2023-02-09T04:04:42.455Z,-8.66
2023-02-09T04:05:39.149Z,-7.99
2023-02-09T04:06:36.499Z,-8.37
2023-02-09T04:07:33.050Z,-8.21
2023-02-09T04:08:30.118Z,-8.23
2023-02-09T04:09:28.346Z,-8.41
2023-02-09T04:10:24.959Z,-8.12
2023-02-09T04:11:23.411Z,-8.31
2023-02-09T04:12:20.203Z,-8.36
2023-02-09T04:13:16.785Z,-8.11
2023-02-09T04:14:13.390Z,-8.26
2023-02-09T04:15:10.378Z,-8.08
2023-02-09T04:16:07.223Z,-8.78
2023-02-09T04:17:03.916Z,-8.58
2023-02-09T04:18:00.488Z,-8.32
2023-02-09T04:18:57.186Z,-8.38
2023-02-09T04:19:53.768Z,-8.61
2023-02-09T04:20:50.371Z,-8.61
2023-02-09T04:21:46.907Z,-8.31
2023-02-09T04:22:43.497Z,-8.34
2023-02-09T04:23:40.132Z,-8.65
2023-02-09T04:24:36.689Z,-7.97
2023-02-09T04:25:33.289Z,-8.42
2023-02-09T04:26:29.897Z,-8.54
2023-02-09T04:27:28.461Z,-8.62
2023-02-09T04:28:25.116Z,-8.47
2023-02-09T04:29:21.731Z,-8.29
2023-02-09T04:30:18.445Z,-8.25
2023-02-09T04:31:15.648Z,-8.21
2023-02-09T04:32:12.372Z,-8.70
2023-02-09T04:33:11.011Z,-8.27
2023-02-09T04:34:07.608Z,-8.37
2023-02-09T04:35:04.535Z,-8.54
2023-02-09T04:36:01.207Z,-8.23
2023-02-09T04:36:57.768Z,-8.12
2023-02-09T04:37:54.471Z,-8.18
2023-02-09T04:38:51.169Z,-8.40
2023-02-09T04:39:47.721Z,-8.06
2023-02-09T04:40:44.575Z,-8.12
2023-02-09T04:41:41.319Z,-8.29
2023-02-09T04:42:37.980Z,-8.42
2023-02-09T04:43:34.733Z,-8.20
2023-02-09T04:44:31.313Z,-8.41
2023-02-09T04:45:28.048Z,-8.34
2023-02-09T04:46:24.668Z,-8.41
2023-02-09T04:47:21.330Z,-8.16
2023-02-09T04:48:20.441Z,-8.07
2023-02-09T04:49:17.055Z,-8.25
2023-02-09T04:50:15.047Z,-8.26
2023-02-09T04:51:11.718Z,-8.35
2023-02-09T04:52:08.667Z,-8.17
2023-02-09T04:53:05.379Z,-8.27
2023-02-09T04:54:01.930Z,-8.59
2023-02-09T04:54:58.511Z,-8.64
2023-02-09T04:55:55.139Z,-8.34
2023-02-09T04:57:11.827Z,-8.61
2023-02-09T04:58:30.479Z,-8.47
2023-02-09T04:59:34.991Z,-8.33
2023-02-09T05:00:31.715Z,-8.63
2023-02-09T05:01:28.536Z,-8.64
2023-02-09T05:02:25.149Z,-8.26
2023-02-09T05:03:24.504Z,-8.86
2023-02-09T05:04:21.305Z,-8.17
2023-02-09T05:05:19.728Z,-8.30
2023-02-09T05:06:17.243Z,-8.49
2023-02-09T05:07:13.832Z,-8.47
2023-02-09T05:08:10.541Z,-8.49
2023-02-09T05:09:07.176Z,-8.23
2023-02-09T05:10:03.951Z,-8.20
2023-02-09T05:11:00.644Z,-8.95
2023-02-09T05:11:57.256Z,-8.59
2023-02-09T05:12:53.877Z,-8.19
2023-02-09T05:13:50.446Z,-8.12
2023-02-09T05:14:46.976Z,-8.10
2023-02-09T05:15:43.793Z,-8.14
2023-02-09T05:16:40.418Z,-8.84
2023-02-09T05:17:37.295Z,-8.53
2023-02-09T05:18:35.632Z,-8.38
2023-02-09T05:19:32.364Z,-8.39
2023-02-09T05:20:28.932Z,-8.24
2023-02-09T05:21:25.494Z,-8.39
2023-02-09T05:22:22.059Z,-8.23
2023-02-09T05:23:18.728Z,-8.40
2023-02-09T05:24:15.333Z,-8.32
2023-02-09T05:25:11.940Z,-8.20
2023-02-09T05:26:09.024Z,-8.34
2023-02-09T05:27:05.797Z,-8.05
2023-02-09T05:28:03.133Z,-8.54
2023-02-09T05:28:59.794Z,-8.45
2023-02-09T05:29:56.421Z,-8.43
2023-02-09T05:30:54.240Z,-8.70
2023-02-09T05:31:50.903Z,-8.73
2023-02-09T05:32:47.884Z,-8.60
2023-02-09T05:33:44.509Z,-8.95
2023-02-09T05:34:41.369Z,-8.43
2023-02-09T05:35:37.979Z,-8.67
2023-02-09T05:36:34.536Z,-8.47
2023-02-09T05:37:31.121Z,-8.40
2023-02-09T05:38:27.784Z,-8.68
2023-02-09T05:39:24.446Z,-8.50
2023-02-09T05:40:21.137Z,-8.38
2023-02-09T05:41:37.731Z,-8.26
2023-02-09T05:42:34.349Z,-8.39
2023-02-09T05:43:30.946Z,-8.36
2023-02-09T05:44:27.603Z,-8.46
2023-02-09T05:45:24.266Z,-8.43
2023-02-09T05:46:20.883Z,-8.20
2023-02-09T05:47:20.164Z,-8.32
2023-02-09T05:48:16.789Z,-8.43
2023-02-09T05:49:13.403Z,-8.41
2023-02-09T05:50:09.942Z,-8.40
2023-02-09T05:51:06.619Z,-8.20
2023-02-09T05:52:03.500Z,-8.19
2023-02-09T05:53:00.189Z,-8.25
2023-02-09T05:53:56.736Z,-8.18
2023-02-09T05:54:53.375Z,-8.59
2023-02-09T05:55:49.930Z,-8.17
2023-02-09T05:56:46.517Z,-8.66
2023-02-09T05:57:43.131Z,-8.21
2023-02-09T05:58:39.701Z,-8.20
2023-02-09T05:59:36.272Z,-8.56
2023-02-09T06:00:33.035Z,-8.02
2023-02-09T06:01:29.577Z,-8.32
2023-02-09T06:02:26.294Z,-8.12
2023-02-09T06:03:23.022Z,-8.14
2023-02-09T06:04:19.810Z,-8.16
2023-02-09T06:05:16.594Z,-8.05
2023-02-09T06:06:13.194Z,-8.10
2023-02-09T06:07:11.872Z,-7.99
2023-02-09T06:08:08.612Z,-8.15
2023-02-09T06:09:05.268Z,-7.87
2023-02-09T06:10:02.012Z,-7.92
2023-02-09T06:10:58.714Z,-8.05
2023-02-09T06:11:55.371Z,-7.76
2023-02-09T06:12:51.951Z,-7.83
2023-02-09T06:13:48.616Z,-7.79
2023-02-09T06:14:45.242Z,-7.58
2023-02-09T06:15:41.904Z,-7.68
2023-02-09T06:16:38.612Z,-7.24
2023-02-09T06:17:35.168Z,-7.47
2023-02-09T06:18:31.830Z,-7.41
2023-02-09T06:19:28.430Z,-7.57
2023-02-09T06:20:25.031Z,-7.60
2023-02-09T06:21:21.615Z,-7.34
2023-02-09T06:22:18.198Z,-7.59
2023-02-09T06:23:14.908Z,-7.53
2023-02-09T06:24:12.504Z,-7.77
2023-02-09T06:25:09.239Z,-7.56
2023-02-09T06:26:10.463Z,-7.52
2023-02-09T06:27:07.105Z,-7.67
2023-02-09T06:28:03.834Z,-7.57
2023-02-09T06:29:00.596Z,-7.45
2023-02-09T06:29:57.240Z,-7.58
2023-02-09T06:30:54.294Z,-7.62
2023-02-09T06:31:51.238Z,-7.63
2023-02-09T06:32:47.915Z,-7.60
2023-02-09T06:33:44.597Z,-7.61
2023-02-09T06:34:41.190Z,-7.38
2023-02-09T06:35:37.798Z,-7.40
2023-02-09T06:36:34.751Z,-7.08
2023-02-09T06:37:31.370Z,-6.80
2023-02-09T06:38:31.291Z,-7.04
2023-02-09T06:39:29.917Z,-7.11
2023-02-09T06:40:26.568Z,-7.15
2023-02-09T06:41:23.240Z,-6.92
2023-02-09T06:42:19.850Z,-7.04
2023-02-09T06:43:17.580Z,-6.57
2023-02-09T06:44:14.234Z,-6.52
2023-02-09T06:45:15.539Z,-6.72
2023-02-09T06:46:13.364Z,-6.55
2023-02-09T06:47:10.048Z,-6.35
2023-02-09T06:48:08.281Z,-6.26
2023-02-09T06:49:05.145Z,-6.39
2023-02-09T06:50:02.160Z,-6.37
2023-02-09T06:50:58.943Z,-6.41
2023-02-09T06:51:55.776Z,-6.39
2023-02-09T06:52:53.448Z,-6.29
2023-02-09T06:53:50.180Z,-6.03
2023-02-09T06:54:46.831Z,-5.85
2023-02-09T06:55:43.449Z,-5.90
2023-02-09T06:56:40.184Z,-6.17
2023-02-09T06:57:37.259Z,-5.87
2023-02-09T06:58:34.568Z,-6.12
2023-02-09T06:59:31.221Z,-6.34
2023-02-09T07:00:28.250Z,-6.02
2023-02-09T07:01:24.899Z,-6.02
2023-02-09T07:02:21.608Z,-5.75
2023-02-09T07:03:18.261Z,-5.86
2023-02-09T07:04:14.844Z,-5.67
2023-02-09T07:05:12.434Z,-5.55
2023-02-09T07:06:14.041Z,-5.83
2023-02-09T07:07:10.752Z,-5.63
2023-02-09T07:08:07.429Z,-5.65
2023-02-09T07:09:04.152Z,-5.63
2023-02-09T07:10:00.746Z,-5.29
2023-02-09T07:10:57.361Z,-5.53
2023-02-09T07:11:53.978Z,-5.83
2023-02-09T07:12:50.627Z,-5.74
2023-02-09T07:13:47.355Z,-5.73
2023-02-09T07:14:43.951Z,-5.24
2023-02-09T07:15:40.562Z,-5.14
2023-02-09T07:16:37.184Z,-4.92
2023-02-09T07:17:34.018Z,-5.31
2023-02-09T07:18:30.756Z,-5.07
2023-02-09T07:19:27.980Z,-4.97
2023-02-09T07:20:24.560Z,-5.13
2023-02-09T07:21:21.548Z,-4.87
2023-02-09T07:22:18.081Z,-4.75
2023-02-09T07:23:14.669Z,-5.10
2023-02-09T07:24:11.302Z,-4.83
2023-02-09T07:25:07.967Z,-4.47
2023-02-09T07:26:06.832Z,-4.37
2023-02-09T07:27:04.975Z,-4.76
2023-02-09T07:28:01.610Z,-4.44
2023-02-09T07:28:58.154Z,-4.30
2023-02-09T07:29:54.730Z,-4.13
2023-02-09T07:30:52.896Z,-4.57
2023-02-09T07:31:49.538Z,-4.69
2023-02-09T07:32:46.120Z,-4.75
2023-02-09T07:33:42.913Z,-4.36
2023-02-09T07:34:39.761Z,-4.70
2023-02-09T07:35:40.502Z,-4.72
2023-02-09T07:36:37.146Z,-4.48
2023-02-09T07:37:35.918Z,-4.43
2023-02-09T07:38:33.466Z,-4.58
2023-02-09T07:39:30.396Z,-5.18
2023-02-09T07:40:27.538Z,-4.34
2023-02-09T07:41:28.680Z,-4.49
2023-02-09T07:42:25.274Z,-5.21
2023-02-09T07:43:21.830Z,-4.91
2023-02-09T07:44:18.633Z,-4.69
2023-02-09T07:45:15.361Z,-4.12
2023-02-09T07:46:17.425Z,-3.82
2023-02-09T07:47:14.462Z,-4.32
2023-02-09T07:48:11.852Z,-4.67
2023-02-09T07:49:08.508Z,-4.60
2023-02-09T07:50:05.880Z,-4.57
2023-02-09T07:51:03.306Z,-4.87
2023-02-09T07:51:59.935Z,-5.42
2023-02-09T07:52:56.642Z,-5.29
2023-02-09T07:53:53.676Z,-5.24
2023-02-09T07:54:51.721Z,-4.90
2023-02-09T07:55:48.521Z,-4.50
2023-02-09T07:56:45.253Z,-4.86
2023-02-09T07:57:41.820Z,-4.82
2023-02-09T07:58:38.571Z,-4.88
2023-02-09T07:59:35.277Z,-4.32
2023-02-09T08:00:31.871Z,-4.23
2023-02-09T08:01:28.699Z,-4.76
2023-02-09T08:02:36.622Z,-4.82
2023-02-09T08:03:35.921Z,-4.69
2023-02-09T08:04:32.539Z,-5.21
2023-02-09T08:05:29.160Z,-4.67
2023-02-09T08:06:42.054Z,-5.18
2023-02-09T08:07:40.370Z,-4.95
2023-02-09T08:08:36.989Z,-4.62
2023-02-09T08:09:33.783Z,-4.14
2023-02-09T08:10:30.544Z,-4.27
2023-02-09T08:11:51.327Z,-4.71
2023-02-09T08:12:59.953Z,-5.10
2023-02-09T08:14:01.844Z,-4.09
2023-02-09T08:14:58.479Z,-4.31
2023-02-09T08:16:00.902Z,-4.39
2023-02-09T08:17:20.335Z,-4.53
2023-02-09T08:18:27.511Z,-4.56
2023-02-09T08:19:24.617Z,-4.37
2023-02-09T08:20:25.612Z,-3.74
2023-02-09T08:21:22.971Z,-3.85
2023-02-09T08:22:21.984Z,-4.07
2023-02-09T08:23:33.716Z,-3.26
2023-02-09T08:24:31.944Z,-3.61
2023-02-09T08:25:28.674Z,-3.71
2023-02-09T08:26:25.937Z,-3.58
2023-02-09T08:27:23.291Z,-3.51
2023-02-09T08:28:21.736Z,-4.25
2023-02-09T08:29:18.602Z,-3.37
2023-02-09T08:30:17.342Z,-3.46
2023-02-09T08:31:16.923Z,-3.92
2023-02-09T08:32:13.749Z,-3.56
2023-02-09T08:33:10.395Z,-3.84
2023-02-09T08:34:07.277Z,-3.03
2023-02-09T08:35:04.275Z,-3.43
2023-02-09T08:36:01.048Z,-3.66
2023-02-09T08:36:57.653Z,-3.53
2023-02-09T08:37:54.333Z,-3.83
2023-02-09T08:38:50.893Z,-3.84
2023-02-09T08:39:47.528Z,-3.37
2023-02-09T08:40:44.282Z,-3.37
2023-02-09T08:41:40.946Z,-3.15
2023-02-09T08:42:37.581Z,-2.58
2023-02-09T08:43:35.284Z,-2.77
2023-02-09T08:44:32.008Z,-2.66
2023-02-09T08:45:29.016Z,-2.41
2023-02-09T08:46:25.851Z,-2.21
2023-02-09T08:47:23.004Z,-2.28
2023-02-09T08:48:19.603Z,-3.06
2023-02-09T08:49:16.247Z,-2.77
2023-02-09T08:50:12.894Z,-2.35
2023-02-09T08:51:11.384Z,-2.56
2023-02-09T08:52:08.428Z,-2.69
2023-02-09T08:53:06.860Z,-2.45
2023-02-09T08:54:03.529Z,-4.03
2023-02-09T08:55:00.177Z,-3.33
2023-02-09T08:55:56.813Z,-3.01
2023-02-09T08:56:53.496Z,-2.66
2023-02-09T08:57:50.136Z,-2.16
2023-02-09T08:58:46.778Z,-1.59
2023-02-09T08:59:43.385Z,-2.43
2023-02-09T09:00:39.999Z,-3.27
2023-02-09T09:01:36.739Z,-1.95
2023-02-09T09:02:34.057Z,-1.87
2023-02-09T09:03:32.875Z,-1.86
2023-02-09T09:04:29.616Z,-2.20
2023-02-09T09:05:26.280Z,-2.41
2023-02-09T09:06:23.086Z,-2.18
2023-02-09T09:07:19.744Z,-2.16
2023-02-09T09:08:16.348Z,-2.43
2023-02-09T09:09:13.090Z,-2.16
2023-02-09T09:10:10.945Z,-2.64
2023-02-09T09:11:12.911Z,-2.30
2023-02-09T09:12:09.637Z,-2.72
2023-02-09T09:13:06.323Z,-2.52
2023-02-09T09:14:02.914Z,-2.12
2023-02-09T09:14:59.481Z,-1.87
2023-02-09T09:15:56.305Z,-2.94
2023-02-09T09:16:53.386Z,-2.66
2023-02-09T09:17:50.010Z,-2.39
2023-02-09T09:18:47.076Z,-1.93
2023-02-09T09:19:43.755Z,-1.59
2023-02-09T09:20:41.379Z,-1.76
2023-02-09T09:21:37.980Z,-2.23
2023-02-09T09:22:34.913Z,-1.85
2023-02-09T09:23:31.515Z,-1.40
2023-02-09T09:24:28.401Z,-1.80
2023-02-09T09:25:25.274Z,-1.78
2023-02-09T09:26:21.966Z,-1.96
2023-02-09T09:27:18.626Z,-1.97
2023-02-09T09:28:15.932Z,-2.25
2023-02-09T09:29:12.537Z,-2.34
2023-02-09T09:30:09.809Z,-1.90
2023-02-09T09:31:14.530Z,-2.32
2023-02-09T09:32:15.483Z,-2.27
2023-02-09T09:33:12.186Z,-2.03
2023-02-09T09:34:08.749Z,-2.43
2023-02-09T09:35:05.816Z,-3.16
2023-02-09T09:36:04.168Z,-2.87
2023-02-09T09:37:00.749Z,-2.23
2023-02-09T09:37:58.574Z,-2.13
2023-02-09T09:38:56.521Z,-2.04
2023-02-09T09:39:53.367Z,-2.48
2023-02-09T09:40:49.957Z,-3.01
2023-02-09T09:41:49.076Z,-2.56
2023-02-09T09:42:51.546Z,-2.30
2023-02-09T09:43:49.041Z,-2.23
2023-02-09T09:44:47.318Z,-1.80
2023-02-09T09:45:46.824Z,-1.27
2023-02-09T09:46:47.949Z,-1.80
2023-02-09T09:47:45.235Z,-1.51
2023-02-09T09:48:49.200Z,-1.59
2023-02-09T09:49:46.189Z,-1.26
2023-02-09T09:50:43.988Z,-1.25
2023-02-09T09:51:46.324Z,-2.08
2023-02-09T09:52:47.632Z,-1.64
2023-02-09T09:53:46.125Z,-2.12
2023-02-09T09:54:44.197Z,-1.64
2023-02-09T09:55:41.084Z,-1.28
2023-02-09T09:56:38.727Z,-1.11
2023-02-09T09:57:40.574Z,-1.15
2023-02-09T09:58:43.343Z,-0.89
2023-02-09T09:59:42.266Z,-1.94
2023-02-09T10:00:41.343Z,-1.14
2023-02-09T10:01:38.025Z,-1.07
2023-02-09T10:02:34.931Z,-1.15
2023-02-09T10:03:31.496Z,-0.75
2023-02-09T10:04:28.709Z,-0.76
2023-02-09T10:05:35.318Z,-1.01
2023-02-09T10:06:35.374Z,-0.78
2023-02-09T10:08:49.501Z,0.06
2023-02-09T10:09:52.520Z,-0.35
2023-02-09T10:10:59.898Z,-0.94
2023-02-09T10:12:18.573Z,-0.56
2023-02-09T10:13:23.214Z,-1.44
2023-02-09T10:14:20.596Z,-0.86
2023-02-09T10:15:24.154Z,-0.08
2023-02-09T10:16:20.739Z,-0.14
2023-02-09T10:17:17.372Z,-0.17
2023-02-09T10:18:17.171Z,-0.97
2023-02-09T10:19:23.320Z,-0.48
2023-02-09T10:20:41.480Z,-0.35
2023-02-09T10:21:38.482Z,-1.57
2023-02-09T10:22:35.410Z,-1.14
2023-02-09T10:24:01.004Z,-0.44
2023-02-09T10:24:59.468Z,-0.02
2023-02-09T10:26:16.181Z,-0.90
2023-02-09T10:27:31.843Z,-0.08
2023-02-09T10:28:34.557Z,-0.28
2023-02-09T10:29:31.633Z,0.30
2023-02-09T10:30:28.937Z,0.22
2023-02-09T10:31:47.673Z,0.39
2023-02-09T10:32:44.719Z,-0.05
2023-02-09T10:33:44.635Z,0.14
2023-02-09T10:34:46.296Z,-0.49
2023-02-09T10:36:06.183Z,-0.19
2023-02-09T10:37:28.429Z,0.16
2023-02-09T10:38:33.003Z,0.58
2023-02-09T10:39:34.007Z,-0.73
2023-02-09T10:40:39.292Z,-0.09
2023-02-09T10:41:36.059Z,-0.24
2023-02-09T10:42:37.660Z,-0.43
2023-02-09T10:43:35.306Z,-0.11
2023-02-09T10:44:35.517Z,0.01
2023-02-09T10:45:42.161Z,-0.95
2023-02-09T10:46:39.869Z,-0.33
2023-02-09T10:47:36.639Z,0.04
2023-02-09T10:48:41.518Z,-1.11
2023-02-09T10:49:40.070Z,-0.81
2023-02-09T10:50:48.406Z,-0.17
2023-02-09T10:51:45.003Z,-1.03
2023-02-09T10:52:56.319Z,-0.88
2023-02-09T10:53:55.713Z,-0.77
2023-02-09T10:54:52.302Z,-1.69
2023-02-09T10:55:49.144Z,-1.29
2023-02-09T10:56:48.427Z,-1.01
2023-02-09T10:57:44.980Z,-0.80
2023-02-09T10:58:41.938Z,-1.12
2023-02-09T10:59:41.445Z,-0.52
2023-02-09T11:00:51.437Z,-1.78
2023-02-09T11:01:57.592Z,-2.48
2023-02-09T11:02:57.720Z,-2.17
2023-02-09T11:04:02.091Z,-2.08
2023-02-09T11:04:58.741Z,-1.32
2023-02-09T11:06:02.736Z,-1.55
2023-02-09T11:07:02.521Z,-1.49
2023-02-09T11:08:06.680Z,-1.40
2023-02-09T11:09:12.076Z,-0.97
2023-02-09T11:10:13.146Z,-0.96
2023-02-09T11:11:37.741Z,-1.68
2023-02-09T11:12:35.487Z,-0.85
2023-02-09T11:13:33.374Z,-1.16
2023-02-09T11:14:30.235Z,-0.95
2023-02-09T11:15:31.379Z,-1.34
2023-02-09T11:16:56.114Z,-2.08
2023-02-09T11:18:10.989Z,-2.16
2023-02-09T11:19:26.128Z,-0.90
2023-02-09T11:20:37.823Z,-0.85
2023-02-09T11:22:01.465Z,-1.79
2023-02-09T11:23:17.745Z,-1.08
2023-02-09T11:24:37.356Z,-1.79
2023-02-09T11:25:43.655Z,-2.00
2023-02-09T11:26:51.506Z,-1.17
2023-02-09T11:28:25.324Z,-2.02
2023-02-09T11:29:40.951Z,-1.78
2023-02-09T11:30:49.862Z,-1.55
2023-02-09T11:32:02.093Z,-1.50
2023-02-09T11:33:26.700Z,-1.83
2023-02-09T11:34:26.424Z,-1.50
2023-02-09T11:35:26.902Z,-1.85
2023-02-09T11:36:23.646Z,-1.65
2023-02-09T11:37:37.241Z,-1.41
2023-02-09T11:38:38.335Z,-1.44
2023-02-09T11:40:07.873Z,-0.54
2023-02-09T11:41:29.738Z,-0.38
2023-02-09T11:42:46.834Z,-1.27
2023-02-09T11:43:45.779Z,-1.15
2023-02-09T11:44:53.403Z,-1.87
2023-02-09T11:45:52.520Z,-2.14
2023-02-09T11:46:58.724Z,-1.85
2023-02-09T11:48:13.868Z,-1.65
2023-02-09T11:49:21.864Z,-1.49
2023-02-09T11:50:33.491Z,-1.55
2023-02-09T11:51:34.608Z,-1.07
2023-02-09T11:52:44.521Z,-0.89
2023-02-09T11:53:59.692Z,-0.74
2023-02-09T11:55:02.615Z,-0.18
2023-02-09T11:56:02.151Z,-0.52
2023-02-09T11:57:03.200Z,0.02
2023-02-09T11:58:12.526Z,-0.81
2023-02-09T11:59:32.836Z,-0.75
2023-02-09T12:00:52.421Z,-0.18
2023-02-09T12:02:08.575Z,0.08
2023-02-09T12:03:11.746Z,0.25
2023-02-09T12:04:29.457Z,-0.65
2023-02-09T12:05:26.937Z,-0.54
2023-02-09T12:06:24.619Z,-0.28
2023-02-09T12:07:32.832Z,-0.10
2023-02-09T12:08:35.411Z,-0.47
2023-02-09T12:09:40.024Z,-0.37
2023-02-09T12:10:55.350Z,-0.69
2023-02-09T12:12:21.043Z,0.10
2023-02-09T12:13:40.347Z,-0.11
2023-02-09T12:15:10.836Z,-0.20
2023-02-09T12:16:20.607Z,-0.58
2023-02-09T12:17:23.343Z,0.41
2023-02-09T12:18:30.845Z,0.31
2023-02-09T12:19:35.186Z,0.37
2023-02-09T12:20:49.828Z,-0.32
2023-02-09T12:21:46.539Z,-0.18
2023-02-09T12:22:52.244Z,-0.05
2023-02-09T12:23:48.903Z,0.07
2023-02-09T12:25:13.413Z,-0.30
2023-02-09T12:26:13.151Z,0.03
2023-02-09T12:27:27.322Z,0.08
2023-02-09T12:28:23.942Z,-0.51
2023-02-09T12:29:36.239Z,0.53
2023-02-09T12:30:45.139Z,0.58
2023-02-09T12:32:03.409Z,0.49
2023-02-09T12:33:24.569Z,0.19
2023-02-09T12:34:27.719Z,0.00
2023-02-09T12:35:38.031Z,0.86
2023-02-09T12:36:35.454Z,0.71
2023-02-09T12:37:32.342Z,0.70
2023-02-09T12:38:54.516Z,0.02
2023-02-09T12:40:20.352Z,-0.13
2023-02-09T12:41:17.936Z,-1.01
2023-02-09T12:42:14.463Z,-0.79
2023-02-09T12:43:28.747Z,0.09
2023-02-09T12:44:27.630Z,0.53
2023-02-09T12:45:44.850Z,-0.29
2023-02-09T12:46:45.003Z,-0.22
2023-02-09T12:47:44.607Z,0.07
2023-02-09T12:48:51.376Z,0.62
2023-02-09T12:49:48.030Z,0.47
2023-02-09T12:50:53.798Z,0.63
2023-02-09T12:51:50.382Z,0.27
2023-02-09T12:53:24.266Z,0.49
2023-02-09T12:54:49.641Z,0.71
2023-02-09T12:56:05.098Z,0.12
2023-02-09T12:57:17.006Z,0.16
2023-02-09T12:58:39.697Z,0.47
2023-02-09T12:59:38.776Z,0.30
2023-02-09T13:00:41.887Z,-0.09
2023-02-09T13:02:24.200Z,0.30
2023-02-09T13:03:23.340Z,0.58
2023-02-09T13:04:20.677Z,0.26
2023-02-09T13:05:30.790Z,0.28